sensor_id;sensor_type;location;lat;lon;timestamp;pressure;altitude;pressure_sealevel;temperature;humidity
46412;BME280;32113;42.012;24.870;2022-10-19T00:00:25;99666.81;;;10.14;42.63
46412;BME280;32113;42.012;24.870;2022-10-19T00:02:51;99639.44;;;10.10;43.63
46412;BME280;32113;42.012;24.870;2022-10-19T00:05:16;99640.31;;;10.03;43.53
46412;BME280;32113;42.012;24.870;2022-10-19T00:07:42;99642.88;;;10.17;43.32
46412;BME280;32113;42.012;24.870;2022-10-19T00:10:07;99637.78;;;10.21;42.96
46412;BME280;32113;42.012;24.870;2022-10-19T00:12:33;99637.75;;;10.35;42.58
46412;BME280;32113;42.012;24.870;2022-10-19T00:14:58;99636.06;;;10.39;42.46
46412;BME280;32113;42.012;24.870;2022-10-19T00:17:24;99631.78;;;10.41;41.99
46412;BME280;32113;42.012;24.870;2022-10-19T00:19:49;99631.78;;;10.43;42.40
46412;BME280;32113;42.012;24.870;2022-10-19T00:22:15;99617.25;;;10.45;43.11
46412;BME280;32113;42.012;24.870;2022-10-19T00:24:40;99617.25;;;10.37;43.27
46412;BME280;32113;42.012;24.870;2022-10-19T00:27:06;99616.38;;;10.38;43.29
46412;BME280;32113;42.012;24.870;2022-10-19T00:29:31;99613.88;;;10.46;43.01
46412;BME280;32113;42.012;24.870;2022-10-19T00:31:57;99619.81;;;10.56;42.40
46412;BME280;32113;42.012;24.870;2022-10-19T00:34:22;99611.28;;;10.54;41.93
46412;BME280;32113;42.012;24.870;2022-10-19T00:36:48;99604.44;;;10.48;42.57
46412;BME280;32113;42.012;24.870;2022-10-19T00:39:15;99593.31;;;10.50;41.83
46412;BME280;32113;42.012;24.870;2022-10-19T00:41:43;99595.00;;;10.59;42.25
46412;BME280;32113;42.012;24.870;2022-10-19T00:46:40;99591.56;;;10.77;41.03
46412;BME280;32113;42.012;24.870;2022-10-19T00:51:41;99580.50;;;10.52;41.62
46412;BME280;32113;42.012;24.870;2022-10-19T00:54:08;99573.66;;;10.49;41.63
46412;BME280;32113;42.012;24.870;2022-10-19T00:56:37;99575.34;;;10.32;41.97
46412;BME280;32113;42.012;24.870;2022-10-19T00:59:04;99571.94;;;10.23;41.92
46412;BME280;32113;42.012;24.870;2022-10-19T01:01:32;99576.22;;;10.18;42.16
46412;BME280;32113;42.012;24.870;2022-10-19T01:03:58;99570.25;;;10.05;42.35
46412;BME280;32113;42.012;24.870;2022-10-19T01:06:24;99571.09;;;10.04;42.35
46412;BME280;32113;42.012;24.870;2022-10-19T01:08:50;99556.56;;;10.17;42.15
46412;BME280;32113;42.012;24.870;2022-10-19T01:38:33;99551.44;;;10.11;42.89
46412;BME280;32113;42.012;24.870;2022-10-19T01:41:11;99547.16;;;10.13;43.29
46412;BME280;32113;42.012;24.870;2022-10-19T01:43:49;99537.75;;;10.07;43.47
46412;BME280;32113;42.012;24.870;2022-10-19T01:46:35;99524.94;;;10.03;43.82
46412;BME280;32113;42.012;24.870;2022-10-19T01:49:10;99538.63;;;9.98;43.45
46412;BME280;32113;42.012;24.870;2022-10-19T01:51:41;99528.38;;;10.11;43.84
46412;BME280;32113;42.012;24.870;2022-10-19T01:54:11;99535.19;;;10.09;42.41
46412;BME280;32113;42.012;24.870;2022-10-19T01:56:40;99528.34;;;10.05;42.44
46412;BME280;32113;42.012;24.870;2022-10-19T01:59:07;99524.94;;;10.09;43.11
46412;BME280;32113;42.012;24.870;2022-10-19T02:01:37;99521.50;;;10.13;43.17
46412;BME280;32113;42.012;24.870;2022-10-19T02:04:05;99520.66;;;10.09;42.73
46412;BME280;32113;42.012;24.870;2022-10-19T02:06:31;99525.78;;;10.08;43.26
46412;BME280;32113;42.012;24.870;2022-10-19T02:08:56;99520.66;;;9.97;43.10
46412;BME280;32113;42.012;24.870;2022-10-19T02:11:22;99520.66;;;9.95;42.54
46412;BME280;32113;42.012;24.870;2022-10-19T02:14:03;99511.28;;;9.77;42.58
46412;BME280;32113;42.012;24.870;2022-10-19T02:16:33;99513.84;;;9.62;42.94
46412;BME280;32113;42.012;24.870;2022-10-19T02:18:59;99505.28;;;9.45;43.22
46412;BME280;32113;42.012;24.870;2022-10-19T02:21:26;99512.94;;;9.33;43.57
46412;BME280;32113;42.012;24.870;2022-10-19T02:23:52;99497.53;;;9.30;43.44
46412;BME280;32113;42.012;24.870;2022-10-19T02:26:18;99501.78;;;9.17;43.29
46412;BME280;32113;42.012;24.870;2022-10-19T02:28:44;99494.94;;;9.05;43.69
46412;BME280;32113;42.012;24.870;2022-10-19T02:31:10;99488.97;;;9.11;43.66
46412;BME280;32113;42.012;24.870;2022-10-19T02:33:37;99487.25;;;8.99;44.59
46412;BME280;32113;42.012;24.870;2022-10-19T02:36:03;99492.34;;;8.96;44.56
46412;BME280;32113;42.012;24.870;2022-10-19T02:38:28;99474.44;;;8.99;44.74
46412;BME280;32113;42.012;24.870;2022-10-19T02:41:08;99477.88;;;9.04;44.93
46412;BME280;32113;42.012;24.870;2022-10-19T02:43:37;99477.03;;;9.06;45.29
46412;BME280;32113;42.012;24.870;2022-10-19T02:46:10;99478.72;;;9.06;45.48
46412;BME280;32113;42.012;24.870;2022-10-19T02:48:40;99480.47;;;9.15;43.96
46412;BME280;32113;42.012;24.870;2022-10-19T02:51:06;99460.78;;;9.06;43.87
46412;BME280;32113;42.012;24.870;2022-10-19T02:53:31;99481.31;;;9.17;43.85
46412;BME280;32113;42.012;24.870;2022-10-19T02:55:57;99475.34;;;9.21;44.05
46412;BME280;32113;42.012;24.870;2022-10-19T02:58:22;99486.47;;;9.28;45.14
46412;BME280;32113;42.012;24.870;2022-10-19T03:00:47;99477.94;;;9.49;44.73
46412;BME280;32113;42.012;24.870;2022-10-19T03:03:13;99477.94;;;9.83;45.18
46412;BME280;32113;42.012;24.870;2022-10-19T03:05:38;99480.50;;;10.13;44.20
46412;BME280;32113;42.012;24.870;2022-10-19T03:08:04;99481.31;;;10.31;43.28
46412;BME280;32113;42.012;24.870;2022-10-19T03:10:29;99468.47;;;10.37;42.81
46412;BME280;32113;42.012;24.870;2022-10-19T03:12:57;99473.59;;;10.49;42.56
46412;BME280;32113;42.012;24.870;2022-10-19T03:15:22;99470.19;;;10.52;42.09
46412;BME280;32113;42.012;24.870;2022-10-19T03:17:52;99461.63;;;10.55;42.44
46412;BME280;32113;42.012;24.870;2022-10-19T03:20:18;99464.94;;;10.74;42.39
46412;BME280;32113;42.012;24.870;2022-10-19T03:22:43;99464.94;;;10.80;42.21
46412;BME280;32113;42.012;24.870;2022-10-19T03:25:08;99464.06;;;10.78;42.46
46412;BME280;32113;42.012;24.870;2022-10-19T03:27:34;99468.34;;;10.81;43.51
46412;BME280;32113;42.012;24.870;2022-10-19T03:29:59;99463.97;;;10.98;43.25
46412;BME280;32113;42.012;24.870;2022-10-19T03:32:25;99456.22;;;11.04;43.30
46412;BME280;32113;42.012;24.870;2022-10-19T03:34:50;99454.59;;;10.93;41.98
46412;BME280;32113;42.012;24.870;2022-10-19T03:37:15;99454.56;;;11.00;42.44
46412;BME280;32113;42.012;24.870;2022-10-19T03:39:41;99457.25;;;10.75;40.86
46412;BME280;32113;42.012;24.870;2022-10-19T03:42:06;99450.50;;;10.37;40.62
46412;BME280;32113;42.012;24.870;2022-10-19T03:44:31;99446.25;;;10.39;40.61
46412;BME280;32113;42.012;24.870;2022-10-19T03:46:57;99447.94;;;10.34;40.10
46412;BME280;32113;42.012;24.870;2022-10-19T03:49:23;99445.41;;;10.29;41.24
46412;BME280;32113;42.012;24.870;2022-10-19T03:51:48;99453.16;;;10.15;40.93
46412;BME280;32113;42.012;24.870;2022-10-19T03:54:15;99436.97;;;9.88;40.56
46412;BME280;32113;42.012;24.870;2022-10-19T03:56:41;99441.22;;;9.80;40.95
46412;BME280;32113;42.012;24.870;2022-10-19T03:59:06;99439.53;;;9.62;40.28
46412;BME280;32113;42.012;24.870;2022-10-19T04:01:36;99427.56;;;9.45;40.72
46412;BME280;32113;42.012;24.870;2022-10-19T04:04:04;99420.75;;;9.35;40.50
46412;BME280;32113;42.012;24.870;2022-10-19T04:06:36;99421.59;;;9.38;40.69
46412;BME280;32113;42.012;24.870;2022-10-19T04:09:02;99431.81;;;9.19;41.08
46412;BME280;32113;42.012;24.870;2022-10-19T04:11:29;99419.84;;;9.06;41.65
46412;BME280;32113;42.012;24.870;2022-10-19T04:13:56;99424.09;;;8.99;41.59
46412;BME280;32113;42.012;24.870;2022-10-19T04:16:23;99418.97;;;8.85;41.86
46412;BME280;32113;42.012;24.870;2022-10-19T04:18:49;99415.50;;;8.72;41.78
46412;BME280;32113;42.012;24.870;2022-10-19T04:21:23;99417.22;;;8.67;42.37
46412;BME280;32113;42.012;24.870;2022-10-19T04:23:50;99412.06;;;8.58;42.19
46412;BME280;32113;42.012;24.870;2022-10-19T04:26:17;99410.34;;;8.53;42.72
46412;BME280;32113;42.012;24.870;2022-10-19T04:28:42;99407.78;;;8.53;42.60
46412;BME280;32113;42.012;24.870;2022-10-19T04:31:09;99423.13;;;8.53;43.02
46412;BME280;32113;42.012;24.870;2022-10-19T04:33:34;99401.75;;;8.47;43.25
46412;BME280;32113;42.012;24.870;2022-10-19T04:36:10;99409.47;;;8.53;42.81
46412;BME280;32113;42.012;24.870;2022-10-19T04:38:37;99410.38;;;8.64;42.49
46412;BME280;32113;42.012;24.870;2022-10-19T04:41:07;99400.13;;;8.63;42.82
46412;BME280;32113;42.012;24.870;2022-10-19T04:43:33;99413.75;;;8.59;42.51
46412;BME280;32113;42.012;24.870;2022-10-19T04:46:09;99411.28;;;8.79;41.64
46412;BME280;32113;42.012;24.870;2022-10-19T04:48:37;99411.28;;;8.91;41.07
46412;BME280;32113;42.012;24.870;2022-10-19T04:51:03;99410.47;;;9.10;41.06
46412;BME280;32113;42.012;24.870;2022-10-19T04:53:29;99402.81;;;9.27;40.44
46412;BME280;32113;42.012;24.870;2022-10-19T04:55:55;99401.09;;;9.16;40.54
46412;BME280;32113;42.012;24.870;2022-10-19T04:58:20;99397.66;;;9.02;40.93
46412;BME280;32113;42.012;24.870;2022-10-19T05:00:46;99399.34;;;8.97;41.06
46412;BME280;32113;42.012;24.870;2022-10-19T05:03:12;99393.38;;;8.90;40.60
46412;BME280;32113;42.012;24.870;2022-10-19T05:05:38;99396.78;;;8.97;40.81
46412;BME280;32113;42.012;24.870;2022-10-19T05:08:03;99402.72;;;8.83;40.82
46412;BME280;32113;42.012;24.870;2022-10-19T05:10:29;99392.47;;;8.67;41.21
46412;BME280;32113;42.012;24.870;2022-10-19T05:12:55;99400.97;;;8.57;41.89
46412;BME280;32113;42.012;24.870;2022-10-19T05:15:20;99399.28;;;8.58;41.43
46412;BME280;32113;42.012;24.870;2022-10-19T05:17:46;99396.72;;;8.64;41.43
46412;BME280;32113;42.012;24.870;2022-10-19T05:20:11;99396.75;;;8.75;41.16
46412;BME280;32113;42.012;24.870;2022-10-19T05:22:37;99395.06;;;8.78;41.14
46412;BME280;32113;42.012;24.870;2022-10-19T05:25:04;99394.13;;;8.54;42.05
46412;BME280;32113;42.012;24.870;2022-10-19T05:27:30;99402.59;;;8.47;41.87
46412;BME280;32113;42.012;24.870;2022-10-19T05:29:55;99396.63;;;8.50;42.32
46412;BME280;32113;42.012;24.870;2022-10-19T05:32:20;99402.59;;;8.49;42.26
46412;BME280;32113;42.012;24.870;2022-10-19T05:34:46;99403.53;;;8.62;41.50
46412;BME280;32113;42.012;24.870;2022-10-19T05:37:11;99400.16;;;8.71;41.20
46412;BME280;32113;42.012;24.870;2022-10-19T05:39:37;99405.31;;;8.80;40.81
46412;BME280;32113;42.012;24.870;2022-10-19T05:42:02;99402.72;;;8.77;40.80
46412;BME280;32113;42.012;24.870;2022-10-19T05:44:28;99401.03;;;8.77;41.11
46412;BME280;32113;42.012;24.870;2022-10-19T05:46:53;99401.03;;;8.90;40.38
46412;BME280;32113;42.012;24.870;2022-10-19T05:49:20;99399.38;;;9.07;39.59
46412;BME280;32113;42.012;24.870;2022-10-19T05:51:46;99390.84;;;9.21;39.11
46412;BME280;32113;42.012;24.870;2022-10-19T05:54:12;99402.81;;;9.30;39.38
46412;BME280;32113;42.012;24.870;2022-10-19T05:56:39;99396.84;;;9.37;39.39
46412;BME280;32113;42.012;24.870;2022-10-19T05:59:05;99399.38;;;9.53;38.96
46412;BME280;32113;42.012;24.870;2022-10-19T06:01:32;99398.53;;;9.54;38.57
46412;BME280;32113;42.012;24.870;2022-10-19T06:03:59;99399.38;;;9.53;39.10
46412;BME280;32113;42.012;24.870;2022-10-19T06:06:25;99401.97;;;9.50;39.58
46412;BME280;32113;42.012;24.870;2022-10-19T06:08:52;99412.19;;;9.51;39.40
46412;BME280;32113;42.012;24.870;2022-10-19T06:11:29;99396.84;;;9.57;38.80
46412;BME280;32113;42.012;24.870;2022-10-19T06:13:57;99407.94;;;9.52;39.34
46412;BME280;32113;42.012;24.870;2022-10-19T06:16:25;99407.94;;;9.55;39.07
46412;BME280;32113;42.012;24.870;2022-10-19T06:18:52;99404.53;;;9.56;39.47
46412;BME280;32113;42.012;24.870;2022-10-19T06:21:19;99401.09;;;9.65;39.16
46412;BME280;32113;42.012;24.870;2022-10-19T06:23:52;99404.50;;;9.70;39.07
46412;BME280;32113;42.012;24.870;2022-10-19T06:26:18;99405.34;;;9.83;38.77
46412;BME280;32113;42.012;24.870;2022-10-19T06:28:44;99404.47;;;10.03;38.70
46412;BME280;32113;42.012;24.870;2022-10-19T06:31:11;99401.03;;;10.08;38.34
46412;BME280;32113;42.012;24.870;2022-10-19T06:33:44;99395.84;;;10.24;38.66
46412;BME280;32113;42.012;24.870;2022-10-19T06:36:21;99400.03;;;10.42;37.99
46412;BME280;32113;42.012;24.870;2022-10-19T06:38:47;99395.78;;;10.55;37.50
46412;BME280;32113;42.012;24.870;2022-10-19T06:41:13;99390.59;;;10.58;37.38
46412;BME280;32113;42.012;24.870;2022-10-19T06:43:39;99394.00;;;10.67;37.46
46412;BME280;32113;42.012;24.870;2022-10-19T06:46:12;99380.25;;;10.75;37.17
46412;BME280;32113;42.012;24.870;2022-10-19T06:48:39;99387.06;;;10.84;37.09
46412;BME280;32113;42.012;24.870;2022-10-19T06:51:05;99386.19;;;10.87;37.29
46412;BME280;32113;42.012;24.870;2022-10-19T06:53:32;99377.50;;;11.02;36.73
46412;BME280;32113;42.012;24.870;2022-10-19T06:55:59;99378.34;;;11.06;37.38
46412;BME280;32113;42.012;24.870;2022-10-19T06:58:25;99381.69;;;11.19;37.61
46412;BME280;32113;42.012;24.870;2022-10-19T07:00:58;99381.59;;;11.31;37.50
46412;BME280;32113;42.012;24.870;2022-10-19T07:03:25;99375.53;;;11.40;37.25
46412;BME280;32113;42.012;24.870;2022-10-19T07:05:59;99378.00;;;11.52;36.86
46412;BME280;32113;42.012;24.870;2022-10-19T07:08:26;99371.06;;;11.59;36.44
46412;BME280;32113;42.012;24.870;2022-10-19T07:10:53;99367.47;;;11.79;36.57
46412;BME280;32113;42.012;24.870;2022-10-19T07:13:19;99372.44;;;11.93;36.21
46412;BME280;32113;42.012;24.870;2022-10-19T07:15:45;99375.72;;;12.11;35.76
46412;BME280;32113;42.012;24.870;2022-10-19T07:18:10;99366.06;;;12.30;35.12
46412;BME280;32113;42.012;24.870;2022-10-19T07:20:36;99359.81;;;12.48;34.41
46412;BME280;32113;42.012;24.870;2022-10-19T07:23:01;99353.53;;;12.68;33.99
46412;BME280;32113;42.012;24.870;2022-10-19T07:25:27;99354.13;;;12.88;33.65
46412;BME280;32113;42.012;24.870;2022-10-19T07:27:54;99347.81;;;13.07;33.96
46412;BME280;32113;42.012;24.870;2022-10-19T07:30:19;99351.13;;;13.17;33.92
46412;BME280;32113;42.012;24.870;2022-10-19T07:32:44;99349.94;;;13.36;33.77
46412;BME280;32113;42.012;24.870;2022-10-19T07:35:10;99343.59;;;13.58;32.74
46412;BME280;32113;42.012;24.870;2022-10-19T07:37:35;99339.84;;;13.73;32.57
46412;BME280;32113;42.012;24.870;2022-10-19T07:40:01;99332.91;;;13.78;32.75
46412;BME280;32113;42.012;24.870;2022-10-19T07:42:27;99342.13;;;13.90;31.99
46412;BME280;32113;42.012;24.870;2022-10-19T07:44:54;99334.97;;;14.04;31.85
46412;BME280;32113;42.012;24.870;2022-10-19T07:47:20;99326.13;;;14.16;32.38
46412;BME280;32113;42.012;24.870;2022-10-19T07:49:45;99330.09;;;14.31;31.69
46412;BME280;32113;42.012;24.870;2022-10-19T07:52:11;99324.91;;;14.33;30.72
46412;BME280;32113;42.012;24.870;2022-10-19T07:54:36;99325.41;;;14.51;31.66
46412;BME280;32113;42.012;24.870;2022-10-19T07:57:02;99323.31;;;14.67;31.38
46412;BME280;32113;42.012;24.870;2022-10-19T07:59:27;99305.69;;;14.86;31.45
46412;BME280;32113;42.012;24.870;2022-10-19T08:01:52;99306.09;;;15.05;30.71
46412;BME280;32113;42.012;24.870;2022-10-19T08:04:18;99303.94;;;15.23;33.79
46412;BME280;32113;42.012;24.870;2022-10-19T08:06:44;99296.50;;;15.44;36.78
46412;BME280;32113;42.012;24.870;2022-10-19T08:09:09;99298.03;;;15.51;37.75
46412;BME280;32113;42.012;24.870;2022-10-19T08:11:35;99294.16;;;15.66;38.48
46412;BME280;32113;42.012;24.870;2022-10-19T08:14:01;99302.50;;;15.77;38.59
46412;BME280;32113;42.012;24.870;2022-10-19T08:16:38;99294.34;;;15.92;38.56
46412;BME280;32113;42.012;24.870;2022-10-19T08:19:22;99294.75;;;16.09;38.31
46412;BME280;32113;42.012;24.870;2022-10-19T08:21:48;99289.97;;;16.25;37.69
46412;BME280;32113;42.012;24.870;2022-10-19T08:24:15;99286.06;;;16.40;37.46
46412;BME280;32113;42.012;24.870;2022-10-19T08:26:41;99294.09;;;16.60;37.50
46412;BME280;32113;42.012;24.870;2022-10-19T08:29:14;99287.59;;;16.75;37.26
46412;BME280;32113;42.012;24.870;2022-10-19T08:31:41;99284.41;;;16.93;37.61
46412;BME280;32113;42.012;24.870;2022-10-19T08:34:10;99282.78;;;17.18;36.63
46412;BME280;32113;42.012;24.870;2022-10-19T08:36:36;99274.66;;;17.53;35.52
46412;BME280;32113;42.012;24.870;2022-10-19T08:39:04;99267.56;;;17.82;35.36
46412;BME280;32113;42.012;24.870;2022-10-19T08:41:37;99263.28;;;18.05;35.08
46412;BME280;32113;42.012;24.870;2022-10-19T08:47:10;99260.50;;;18.76;34.50
46412;BME280;32113;42.012;24.870;2022-10-19T08:49:40;99269.13;;;18.99;33.80
46412;BME280;32113;42.012;24.870;2022-10-19T08:52:27;99262.03;;;19.24;33.41
46412;BME280;32113;42.012;24.870;2022-10-19T08:54:55;99255.63;;;19.52;33.55
46412;BME280;32113;42.012;24.870;2022-10-19T09:05:34;99251.53;;;20.79;31.65
46412;BME280;32113;42.012;24.870;2022-10-19T09:08:04;99244.28;;;21.04;31.16
46412;BME280;32113;42.012;24.870;2022-10-19T09:10:38;99239.41;;;21.31;30.54
46412;BME280;32113;42.012;24.870;2022-10-19T09:13:13;99237.50;;;21.51;30.36
46412;BME280;32113;42.012;24.870;2022-10-19T09:18:09;99224.38;;;21.86;29.00
46412;BME280;32113;42.012;24.870;2022-10-19T09:20:40;99229.41;;;22.05;28.65
46412;BME280;32113;42.012;24.870;2022-10-19T09:23:28;99217.84;;;22.26;28.54
46412;BME280;32113;42.012;24.870;2022-10-19T09:25:55;99214.97;;;22.30;28.35
46412;BME280;32113;42.012;24.870;2022-10-19T09:31:33;99223.34;;;22.68;27.26
46412;BME280;32113;42.012;24.870;2022-10-19T09:34:05;99217.97;;;22.86;27.18
46412;BME280;32113;42.012;24.870;2022-10-19T09:36:37;99208.38;;;23.01;26.52
46412;BME280;32113;42.012;24.870;2022-10-19T09:39:04;99213.78;;;23.12;26.39
46412;BME280;32113;42.012;24.870;2022-10-19T09:41:30;99206.16;;;23.23;25.98
46412;BME280;32113;42.012;24.870;2022-10-19T09:43:56;99203.66;;;23.36;25.36
46412;BME280;32113;42.012;24.870;2022-10-19T09:46:33;99203.16;;;23.44;25.01
46412;BME280;32113;42.012;24.870;2022-10-19T09:49:02;99195.38;;;23.57;24.57
46412;BME280;32113;42.012;24.870;2022-10-19T09:51:48;99197.56;;;23.65;24.27
46412;BME280;32113;42.012;24.870;2022-10-19T09:54:24;99192.19;;;23.81;24.25
46412;BME280;32113;42.012;24.870;2022-10-19T09:56:54;99190.69;;;23.77;24.08
46412;BME280;32113;42.012;24.870;2022-10-19T09:59:22;99187.78;;;23.82;24.37
46412;BME280;32113;42.012;24.870;2022-10-19T10:01:53;99179.31;;;23.91;24.09
46412;BME280;32113;42.012;24.870;2022-10-19T10:04:23;99173.22;;;24.05;23.40
46412;BME280;32113;42.012;24.870;2022-10-19T10:06:48;99183.41;;;24.10;23.92
46412;BME280;32113;42.012;24.870;2022-10-19T10:09:15;99172.44;;;24.03;23.74
46412;BME280;32113;42.012;24.870;2022-10-19T10:11:42;99158.53;;;24.02;23.49
46412;BME280;32113;42.012;24.870;2022-10-19T10:14:22;99159.31;;;24.18;23.65
46412;BME280;32113;42.012;24.870;2022-10-19T10:16:56;99156.19;;;24.25;22.92
46412;BME280;32113;42.012;24.870;2022-10-19T10:19:28;99154.22;;;24.29;23.22
46412;BME280;32113;42.012;24.870;2022-10-19T10:21:55;99154.13;;;24.31;23.07
46412;BME280;32113;42.012;24.870;2022-10-19T10:24:30;99146.13;;;24.32;23.30
46412;BME280;32113;42.012;24.870;2022-10-19T10:27:01;99143.13;;;24.38;22.71
46412;BME280;32113;42.012;24.870;2022-10-19T10:29:37;99143.75;;;24.55;22.54
46412;BME280;32113;42.012;24.870;2022-10-19T10:32:18;99132.88;;;24.61;22.64
46412;BME280;32113;42.012;24.870;2022-10-19T10:39:50;99126.47;;;24.78;22.90
46412;BME280;32113;42.012;24.870;2022-10-19T10:42:18;99128.16;;;24.79;22.77
46412;BME280;32113;42.012;24.870;2022-10-19T10:44:50;99130.69;;;24.81;22.72
46412;BME280;32113;42.012;24.870;2022-10-19T10:47:18;99125.53;;;24.79;22.54
46412;BME280;32113;42.012;24.870;2022-10-19T10:50:01;99114.19;;;24.79;21.99
46412;BME280;32113;42.012;24.870;2022-10-19T10:52:29;99107.16;;;24.79;21.77
46412;BME280;32113;42.012;24.870;2022-10-19T10:54:59;99108.56;;;24.85;22.34
46412;BME280;32113;42.012;24.870;2022-10-19T10:57:30;99105.25;;;24.82;21.68
46412;BME280;32113;42.012;24.870;2022-10-19T11:00:13;99106.13;;;24.82;21.58
46412;BME280;32113;42.012;24.870;2022-10-19T11:07:47;99093.09;;;24.67;21.94
46412;BME280;32113;42.012;24.870;2022-10-19T11:10:25;99086.81;;;24.83;21.57
46412;BME280;32113;42.012;24.870;2022-10-19T11:16:13;99075.19;;;24.87;21.63
46412;BME280;32113;42.012;24.870;2022-10-19T11:18:43;99080.06;;;24.79;21.43
46412;BME280;32113;42.012;24.870;2022-10-19T11:31:53;99061.94;;;24.63;22.13
46412;BME280;32113;42.012;24.870;2022-10-19T11:40:02;99055.75;;;24.51;22.36
46412;BME280;32113;42.012;24.870;2022-10-19T11:48:12;99043.19;;;24.30;22.51
46412;BME280;32113;42.012;24.870;2022-10-19T11:50:52;99039.19;;;24.37;22.04
46412;BME280;32113;42.012;24.870;2022-10-19T12:06:38;99024.72;;;24.45;21.79
46412;BME280;32113;42.012;24.870;2022-10-19T12:14:34;99016.97;;;24.30;21.12
46412;BME280;32113;42.012;24.870;2022-10-19T12:17:05;99020.31;;;24.19;21.29
46412;BME280;32113;42.012;24.870;2022-10-19T12:19:38;99025.75;;;24.16;21.54
46412;BME280;32113;42.012;24.870;2022-10-19T12:22:06;99015.22;;;24.03;21.43
46412;BME280;32113;42.012;24.870;2022-10-19T12:24:35;99018.75;;;23.76;21.37
46412;BME280;32113;42.012;24.870;2022-10-19T12:27:01;99002.09;;;23.77;22.30
46412;BME280;32113;42.012;24.870;2022-10-19T12:29:29;98994.88;;;23.81;22.09
46412;BME280;32113;42.012;24.870;2022-10-19T12:31:58;98993.31;;;23.91;21.97
46412;BME280;32113;42.012;24.870;2022-10-19T12:34:45;98999.78;;;23.85;22.20
46412;BME280;32113;42.012;24.870;2022-10-19T12:40:06;98992.97;;;23.83;21.84
46412;BME280;32113;42.012;24.870;2022-10-19T12:45:29;98983.72;;;23.64;21.84
46412;BME280;32113;42.012;24.870;2022-10-19T12:53:36;98985.88;;;23.72;22.23
46412;BME280;32113;42.012;24.870;2022-10-19T13:04:31;98972.13;;;23.68;21.65
46412;BME280;32113;42.012;24.870;2022-10-19T13:06:58;98968.34;;;23.59;21.41
46412;BME280;32113;42.012;24.870;2022-10-19T13:09:39;98970.09;;;23.59;21.43
46412;BME280;32113;42.012;24.870;2022-10-19T13:22:49;98954.25;;;24.01;21.69
46412;BME280;32113;42.012;24.870;2022-10-19T13:27:40;98947.31;;;23.74;21.36
46412;BME280;32113;42.012;24.870;2022-10-19T13:39:03;98932.13;;;23.79;21.79
46412;BME280;32113;42.012;24.870;2022-10-19T13:44:26;98927.63;;;23.81;22.01
46412;BME280;32113;42.012;24.870;2022-10-19T13:46:59;98934.44;;;23.84;22.58
46412;BME280;32113;42.012;24.870;2022-10-19T13:52:59;98931.59;;;23.87;21.91
46412;BME280;32113;42.012;24.870;2022-10-19T14:01:09;98927.72;;;23.93;23.98
46412;BME280;32113;42.012;24.870;2022-10-19T14:06:42;98929.81;;;23.87;24.22
46412;BME280;32113;42.012;24.870;2022-10-19T14:12:02;98935.25;;;23.71;24.64
46412;BME280;32113;42.012;24.870;2022-10-19T14:14:38;98928.72;;;23.64;25.52
46412;BME280;32113;42.012;24.870;2022-10-19T14:17:14;98926.34;;;23.61;25.58
46412;BME280;32113;42.012;24.870;2022-10-19T14:20:17;98926.44;;;23.46;25.49
46412;BME280;32113;42.012;24.870;2022-10-19T14:22:48;98926.56;;;23.30;25.44
46412;BME280;32113;42.012;24.870;2022-10-19T14:25:22;98920.63;;;23.14;26.00
46412;BME280;32113;42.012;24.870;2022-10-19T14:27:55;98933.13;;;22.95;25.72
46412;BME280;32113;42.012;24.870;2022-10-19T14:30:27;98927.09;;;22.80;25.57
46412;BME280;32113;42.012;24.870;2022-10-19T14:32:56;98934.50;;;22.59;26.13
46412;BME280;32113;42.012;24.870;2022-10-19T14:35:45;98930.56;;;22.37;26.33
46412;BME280;32113;42.012;24.870;2022-10-19T14:38:18;98919.47;;;22.19;26.79
46412;BME280;32113;42.012;24.870;2022-10-19T14:40:45;98926.19;;;21.94;27.26
46412;BME280;32113;42.012;24.870;2022-10-19T14:43:25;98927.47;;;21.72;27.45
46412;BME280;32113;42.012;24.870;2022-10-19T14:48:34;98927.56;;;21.24;28.11
46412;BME280;32113;42.012;24.870;2022-10-19T14:51:01;98926.50;;;20.96;28.18
46412;BME280;32113;42.012;24.870;2022-10-19T14:53:58;98931.88;;;20.77;28.56
46412;BME280;32113;42.012;24.870;2022-10-19T14:56:34;98928.59;;;20.57;28.63
46412;BME280;32113;42.012;24.870;2022-10-19T15:01:52;98928.78;;;20.36;28.89
46412;BME280;32113;42.012;24.870;2022-10-19T15:04:22;98930.75;;;20.15;29.05
46412;BME280;32113;42.012;24.870;2022-10-19T15:06:50;98936.44;;;20.05;29.44
46412;BME280;32113;42.012;24.870;2022-10-19T15:09:25;98932.00;;;19.90;29.73
46412;BME280;32113;42.012;24.870;2022-10-19T15:11:52;98934.47;;;19.75;30.06
46412;BME280;32113;42.012;24.870;2022-10-19T15:14:26;98935.47;;;19.55;30.18
46412;BME280;32113;42.012;24.870;2022-10-19T15:16:58;98932.00;;;19.37;30.13
46412;BME280;32113;42.012;24.870;2022-10-19T15:19:48;98931.75;;;19.24;30.49
46412;BME280;32113;42.012;24.870;2022-10-19T15:22:22;98936.19;;;19.02;30.26
46412;BME280;32113;42.012;24.870;2022-10-19T15:25:11;98936.34;;;18.80;30.60
46412;BME280;32113;42.012;24.870;2022-10-19T15:27:43;98931.94;;;18.63;30.59
46412;BME280;32113;42.012;24.870;2022-10-19T15:32:57;98944.13;;;18.42;30.34
46412;BME280;32113;42.012;24.870;2022-10-19T15:35:37;98941.81;;;18.35;30.77
46412;BME280;32113;42.012;24.870;2022-10-19T15:38:06;98948.31;;;18.25;30.89
46412;BME280;32113;42.012;24.870;2022-10-19T15:40:38;98950.72;;;18.30;30.55
46412;BME280;32113;42.012;24.870;2022-10-19T15:43:44;98952.16;;;18.16;31.05
46412;BME280;32113;42.012;24.870;2022-10-19T15:56:20;98948.28;;;17.63;31.19
46412;BME280;32113;42.012;24.870;2022-10-19T15:58:50;98949.97;;;17.64;31.27
46412;BME280;32113;42.012;24.870;2022-10-19T16:01:21;98955.69;;;17.72;30.71
46412;BME280;32113;42.012;24.870;2022-10-19T16:03:47;98953.69;;;17.58;30.40